Time;durP1;ratioP1;P1;durP2;ratioP2;P2;SDS_P1;SDS_P2;PMS_P1;PMS_P2;Temp;Humidity;BMP_temperature;BMP_pressure;BME280_temperature;BME280_humidity;BME280_pressure;Samples;Min_cycle;Max_cycle;Signal;HPM_P1;HPM_P2
2023/07/16 00:00:51;;;;;;;10.30;6.70;;;;;;;;;;108341;1248;23223;-80
2023/07/16 00:03:37;;;;;;;9.40;7.10;;;;;;;;;;108313;1249;24223;-80
2023/07/16 00:06:04;;;;;;;8.90;7.50;;;;;;;;;;108385;1250;22541;-81
2023/07/16 00:08:30;;;;;;;12.30;6.70;;;;;;;;;;108369;1251;22590;-80
2023/07/16 00:10:56;;;;;;;11.90;6.80;;;;;;;;;;108356;1249;23250;-80
2023/07/16 00:13:23;;;;;;;9.50;6.20;;;;;;;;;;108353;1250;22631;-81
2023/07/16 00:15:49;;;;;;;8.40;7.30;;;;;;;;;;108413;1249;25265;-81
2023/07/16 00:18:15;;;;;;;10.10;7.20;;;;;;;;;;108317;1250;22642;-79
2023/07/16 00:20:42;;;;;;;9.20;6.90;;;;;;;;;;108363;1251;24218;-80
2023/07/16 00:23:08;;;;;;;8.70;6.60;;;;;;;;;;108483;1253;22552;-80
2023/07/16 00:25:35;;;;;;;9.90;7.30;;;;;;;;;;108312;1249;25504;-81
2023/07/16 00:28:01;;;;;;;8.20;6.60;;;;;;;;;;108363;1248;25295;-79
2023/07/16 00:30:28;;;;;;;11.00;6.20;;;;;;;;;;108362;1252;25335;-80
2023/07/16 00:32:54;;;;;;;10.50;6.50;;;;;;;;;;108317;1251;58529;-80
2023/07/16 00:35:20;;;;;;;7.80;5.90;;;;;;;;;;108362;1250;22522;-80
2023/07/16 00:37:47;;;;;;;9.40;6.10;;;;;;;;;;107665;1250;58607;-78
2023/07/16 00:40:13;;;;;;;7.90;6.40;;;;;;;;;;107742;1249;35331;-79
2023/07/16 00:42:39;;;;;;;7.60;6.70;;;;;;;;;;107741;1251;33904;-80
2023/07/16 00:45:09;;;;;;;8.70;7.30;;;;;;;;;;107785;1251;22544;-80
2023/07/16 00:47:35;;;;;;;7.60;6.30;;;;;;;;;;107749;1251;22546;-79
2023/07/16 00:50:01;;;;;;;10.20;6.80;;;;;;;;;;107786;1249;22959;-80
2023/07/16 00:52:28;;;;;;;9.60;7.20;;;;;;;;;;107906;1252;22546;-79
2023/07/16 00:54:54;;;;;;;7.80;6.60;;;;;;;;;;108311;1248;23001;-80
2023/07/16 00:57:21;;;;;;;8.10;6.10;;;;;;;;;;108437;1251;24408;-80
2023/07/16 00:59:47;;;;;;;9.50;7.10;;;;;;;;;;108438;1250;22522;-79
2023/07/16 01:02:14;;;;;;;10.50;6.80;;;;;;;;;;108336;1253;22779;-81
2023/07/16 01:04:40;;;;;;;7.10;6.30;;;;;;;;;;108413;1250;22587;-80
2023/07/16 01:07:07;;;;;;;9.70;7.00;;;;;;;;;;110219;1249;22551;-81
2023/07/16 01:09:36;;;;;;;10.20;6.90;;;;;;;;;;110936;1249;22433;-79
2023/07/16 01:12:03;;;;;;;9.40;6.60;;;;;;;;;;110915;1251;22321;-80
2023/07/16 01:14:29;;;;;;;8.00;6.30;;;;;;;;;;110932;1250;23077;-80
2023/07/16 01:16:58;;;;;;;9.80;7.20;;;;;;;;;;110971;1250;22323;-81
2023/07/16 01:19:25;;;;;;;8.30;6.50;;;;;;;;;;108347;1251;22601;-79
2023/07/16 01:22:12;;;;;;;11.10;7.10;;;;;;;;;;108420;1249;22615;-80
2023/07/16 01:24:41;;;;;;;11.00;6.90;;;;;;;;;;108284;1250;22677;-80
2023/07/16 01:27:26;;;;;;;9.30;6.80;;;;;;;;;;108433;1251;22587;-80
2023/07/16 01:29:54;;;;;;;7.80;6.40;;;;;;;;;;108399;1251;25370;-80
2023/07/16 01:32:20;;;;;;;7.80;6.50;;;;;;;;;;108352;1250;22639;-80
2023/07/16 01:34:47;;;;;;;9.80;7.60;;;;;;;;;;108368;1250;22532;-80
2023/07/16 01:37:13;;;;;;;8.20;7.30;;;;;;;;;;108272;1251;22530;-80
2023/07/16 01:39:39;;;;;;;7.70;6.70;;;;;;;;;;108373;1249;22534;-79
2023/07/16 01:42:06;;;;;;;9.30;7.20;;;;;;;;;;108439;1251;24281;-80
2023/07/16 01:44:32;;;;;;;10.40;7.60;;;;;;;;;;108392;1251;22588;-80
2023/07/16 01:47:09;;;;;;;9.40;7.50;;;;;;;;;;108366;1251;22532;-80
2023/07/16 01:49:36;;;;;;;11.00;8.30;;;;;;;;;;110433;1249;22283;-80
2023/07/16 01:52:02;;;;;;;10.00;7.60;;;;;;;;;;110908;1251;23092;-80
2023/07/16 01:54:29;;;;;;;9.30;8.10;;;;;;;;;;110957;1249;22108;-80
2023/07/16 01:56:55;;;;;;;9.40;7.60;;;;;;;;;;110665;1249;22653;-80
2023/07/16 01:59:22;;;;;;;8.80;7.50;;;;;;;;;;108407;1250;22740;-81
2023/07/16 02:01:48;;;;;;;9.30;7.40;;;;;;;;;;108351;1252;22545;-80
2023/07/16 02:04:14;;;;;;;9.50;7.20;;;;;;;;;;109390;1248;22256;-80
2023/07/16 02:06:41;;;;;;;8.20;6.90;;;;;;;;;;109477;1249;22528;-81
2023/07/16 02:09:07;;;;;;;7.70;6.90;;;;;;;;;;108314;1250;22600;-79
2023/07/16 02:11:34;;;;;;;8.40;7.50;;;;;;;;;;108318;1250;22715;-80
2023/07/16 02:14:00;;;;;;;8.10;7.10;;;;;;;;;;108308;1249;22614;-79
2023/07/16 02:16:27;;;;;;;10.30;7.80;;;;;;;;;;108309;1251;22590;-79
2023/07/16 02:18:53;;;;;;;7.90;6.50;;;;;;;;;;108296;1251;25590;-80
2023/07/16 02:21:20;;;;;;;12.40;7.40;;;;;;;;;;108297;1253;22541;-80
2023/07/16 02:23:47;;;;;;;9.20;6.10;;;;;;;;;;108302;1249;23373;-80
2023/07/16 02:26:13;;;;;;;6.90;6.00;;;;;;;;;;108298;1251;25329;-80
2023/07/16 02:28:39;;;;;;;9.60;6.60;;;;;;;;;;108293;1250;25507;-80
2023/07/16 02:31:06;;;;;;;6.80;5.80;;;;;;;;;;108316;1251;24189;-80
2023/07/16 02:33:32;;;;;;;7.60;6.50;;;;;;;;;;108288;1249;22643;-80
2023/07/16 02:35:58;;;;;;;8.70;6.90;;;;;;;;;;108282;1250;22601;-79
2023/07/16 02:38:25;;;;;;;9.60;5.70;;;;;;;;;;108292;1250;24247;-80
2023/07/16 02:40:51;;;;;;;8.40;6.30;;;;;;;;;;108502;1249;22306;-80
2023/07/16 02:43:17;;;;;;;9.20;6.10;;;;;;;;;;110822;1249;22242;-80
2023/07/16 02:45:44;;;;;;;9.30;6.00;;;;;;;;;;110827;1249;22141;-80
2023/07/16 02:48:10;;;;;;;9.00;6.00;;;;;;;;;;110787;1249;22246;-81
2023/07/16 02:50:37;;;;;;;6.70;5.60;;;;;;;;;;110831;1249;22321;-80
2023/07/16 02:53:03;;;;;;;8.10;6.00;;;;;;;;;;110783;1249;22808;-81
2023/07/16 02:55:30;;;;;;;10.60;6.80;;;;;;;;;;110833;1249;22401;-80
2023/07/16 02:57:56;;;;;;;8.40;5.80;;;;;;;;;;110795;1249;22283;-81
2023/07/16 03:00:23;;;;;;;8.30;5.80;;;;;;;;;;110831;1249;22972;-80
2023/07/16 03:02:49;;;;;;;8.90;5.30;;;;;;;;;;110779;1249;22430;-80
2023/07/16 03:05:16;;;;;;;7.50;6.00;;;;;;;;;;110780;1249;22872;-80
2023/07/16 03:07:43;;;;;;;6.40;5.50;;;;;;;;;;110834;1249;22377;-80
2023/07/16 03:10:10;;;;;;;7.00;5.50;;;;;;;;;;110881;1250;22362;-81
2023/07/16 03:12:37;;;;;;;9.70;5.60;;;;;;;;;;109556;1247;22616;-80
2023/07/16 03:15:03;;;;;;;9.60;6.30;;;;;;;;;;108633;1248;23027;-80
2023/07/16 03:17:30;;;;;;;10.10;5.30;;;;;;;;;;108338;1251;22512;-80
2023/07/16 03:19:56;;;;;;;8.30;5.50;;;;;;;;;;108686;1247;24342;-80
2023/07/16 03:22:22;;;;;;;9.30;5.60;;;;;;;;;;108676;1248;22530;-79
2023/07/16 03:24:49;;;;;;;11.40;5.40;;;;;;;;;;108507;1248;22518;-80
2023/07/16 03:27:15;;;;;;;8.10;6.50;;;;;;;;;;108681;1248;22671;-81
2023/07/16 03:29:41;;;;;;;8.70;6.20;;;;;;;;;;108673;1248;22529;-80
2023/07/16 03:32:08;;;;;;;7.00;5.20;;;;;;;;;;108711;1248;22590;-80
2023/07/16 03:34:34;;;;;;;7.70;5.80;;;;;;;;;;108700;1248;22583;-80
2023/07/16 03:37:00;;;;;;;8.90;5.40;;;;;;;;;;108106;1247;25039;-80
2023/07/16 03:39:27;;;;;;;6.60;5.90;;;;;;;;;;108088;1248;23572;-80
2023/07/16 03:41:53;;;;;;;6.20;5.10;;;;;;;;;;108092;1248;22532;-80
2023/07/16 03:44:20;;;;;;;7.80;5.70;;;;;;;;;;108646;1248;22551;-80
2023/07/16 03:46:46;;;;;;;7.10;6.00;;;;;;;;;;108663;1247;22583;-80
2023/07/16 03:49:12;;;;;;;7.60;5.40;;;;;;;;;;108692;1247;22592;-80
2023/07/16 03:51:39;;;;;;;8.40;5.20;;;;;;;;;;108632;1247;22640;-80
2023/07/16 03:54:05;;;;;;;9.10;5.60;;;;;;;;;;108518;1248;22646;-80
2023/07/16 03:56:32;;;;;;;7.30;5.50;;;;;;;;;;108608;1247;22532;-80
2023/07/16 03:58:58;;;;;;;8.40;6.20;;;;;;;;;;108618;1248;22548;-80
2023/07/16 04:01:24;;;;;;;7.80;5.50;;;;;;;;;;108642;1247;23034;-80
2023/07/16 04:03:51;;;;;;;7.70;5.90;;;;;;;;;;108659;1248;22872;-80
2023/07/16 04:06:17;;;;;;;7.40;5.50;;;;;;;;;;108604;1251;24340;-80
2023/07/16 04:08:43;;;;;;;8.40;6.00;;;;;;;;;;108431;1248;22571;-80
2023/07/16 04:11:10;;;;;;;8.90;7.00;;;;;;;;;;108459;1251;27596;-79
2023/07/16 04:13:36;;;;;;;9.00;7.30;;;;;;;;;;108641;1248;25495;-80
2023/07/16 04:16:03;;;;;;;10.30;9.20;;;;;;;;;;108556;1247;23026;-81
2023/07/16 04:18:29;;;;;;;11.90;10.70;;;;;;;;;;108657;1247;23208;-80
2023/07/16 04:20:55;;;;;;;12.40;10.70;;;;;;;;;;108643;1248;27711;-80
2023/07/16 04:23:22;;;;;;;11.90;10.70;;;;;;;;;;108533;1248;24237;-80
2023/07/16 04:25:52;;;;;;;13.70;12.40;;;;;;;;;;108632;1247;22534;-80
2023/07/16 04:28:19;;;;;;;16.70;15.20;;;;;;;;;;108663;1247;22618;-80
2023/07/16 04:30:45;;;;;;;19.20;15.70;;;;;;;;;;108653;1251;22532;-80
2023/07/16 04:33:11;;;;;;;14.70;13.00;;;;;;;;;;108675;1247;22552;-80
2023/07/16 04:35:38;;;;;;;7.70;7.00;;;;;;;;;;108637;1251;26538;-80
2023/07/16 04:38:04;;;;;;;11.90;8.10;;;;;;;;;;108646;1248;22528;-80
2023/07/16 04:40:31;;;;;;;10.90;9.10;;;;;;;;;;108315;1251;22528;-81
2023/07/16 04:42:57;;;;;;;10.70;8.70;;;;;;;;;;108620;1247;23253;-80
2023/07/16 04:45:24;;;;;;;12.00;8.20;;;;;;;;;;108639;1247;23100;-80
2023/07/16 04:47:50;;;;;;;14.30;7.20;;;;;;;;;;108680;1248;25491;-80
2023/07/16 04:50:17;;;;;;;10.30;6.80;;;;;;;;;;108697;1248;22717;-80
2023/07/16 04:52:43;;;;;;;7.40;6.70;;;;;;;;;;108609;1251;22549;-80
2023/07/16 04:55:10;;;;;;;9.10;7.70;;;;;;;;;;108523;1248;26459;-80
2023/07/16 04:57:37;;;;;;;13.30;8.20;;;;;;;;;;108546;1248;22715;-81
2023/07/16 05:00:05;;;;;;;8.10;6.80;;;;;;;;;;108616;1248;22527;-80
2023/07/16 05:02:32;;;;;;;;;;;;;;;;;;108634;1248;22488;-80
2023/07/16 05:04:58;;;;;;;14.70;6.60;;;;;;;;;;108633;1247;22580;-81
2023/07/16 05:07:25;;;;;;;7.30;6.60;;;;;;;;;;108598;1247;22627;-81
2023/07/16 05:09:51;;;;;;;7.80;7.00;;;;;;;;;;108534;1249;22534;-81
2023/07/16 05:12:17;;;;;;;7.10;6.40;;;;;;;;;;108650;1247;22564;-82
2023/07/16 05:14:45;;;;;;;8.40;6.80;;;;;;;;;;108640;1247;22651;-81
2023/07/16 05:17:13;;;;;;;8.30;6.60;;;;;;;;;;108604;1248;23173;-81
2023/07/16 05:19:39;;;;;;;7.40;6.50;;;;;;;;;;108602;1248;22560;-80
2023/07/16 05:22:06;;;;;;;8.30;6.50;;;;;;;;;;108622;1247;25297;-81
2023/07/16 05:24:32;;;;;;;9.90;6.60;;;;;;;;;;108575;1248;25327;-82
2023/07/16 05:26:59;;;;;;;9.50;7.70;;;;;;;;;;108636;1248;22567;-81
2023/07/16 05:29:25;;;;;;;13.10;7.90;;;;;;;;;;108598;1248;22564;-81
2023/07/16 05:31:51;;;;;;;8.30;7.50;;;;;;;;;;108608;1248;22639;-82
2023/07/16 05:34:18;;;;;;;7.70;7.00;;;;;;;;;;108621;1248;22529;-82
2023/07/16 05:36:44;;;;;;;8.80;7.80;;;;;;;;;;108590;1251;22605;-81
2023/07/16 05:39:14;;;;;;;8.30;6.90;;;;;;;;;;108568;1247;22518;-81
2023/07/16 05:41:40;;;;;;;7.10;6.40;;;;;;;;;;108664;1247;22563;-81
2023/07/16 05:44:08;;;;;;;7.70;6.50;;;;;;;;;;108569;1248;22521;-81
2023/07/16 05:46:35;;;;;;;8.30;6.10;;;;;;;;;;108637;1248;25414;-81
2023/07/16 05:49:01;;;;;;;6.90;6.10;;;;;;;;;;108812;1248;24215;-82
2023/07/16 05:51:27;;;;;;;7.90;5.20;;;;;;;;;;108829;1248;55848;-81
2023/07/16 05:53:54;;;;;;;9.80;5.80;;;;;;;;;;108600;1248;22566;-80
2023/07/16 05:56:20;;;;;;;7.50;5.70;;;;;;;;;;108630;1247;23188;-81
2023/07/16 05:58:47;;;;;;;7.70;5.90;;;;;;;;;;108566;1251;22542;-81
2023/07/16 06:01:13;;;;;;;6.60;6.00;;;;;;;;;;108548;1248;23297;-81
2023/07/16 06:03:40;;;;;;;11.10;6.50;;;;;;;;;;108615;1247;24215;-81
2023/07/16 06:06:08;;;;;;;7.70;6.40;;;;;;;;;;108535;1247;22522;-82
2023/07/16 06:08:34;;;;;;;6.10;4.80;;;;;;;;;;108502;1249;22582;-81
2023/07/16 06:11:01;;;;;;;8.50;5.50;;;;;;;;;;108367;1248;22527;-81
2023/07/16 06:13:27;;;;;;;6.30;5.70;;;;;;;;;;108541;1247;22556;-81
2023/07/16 06:15:53;;;;;;;8.90;5.70;;;;;;;;;;108548;1248;22527;-81
2023/07/16 06:18:20;;;;;;;9.00;6.30;;;;;;;;;;108582;1251;22640;-81
2023/07/16 06:20:46;;;;;;;8.20;6.70;;;;;;;;;;108538;1247;22546;-81
2023/07/16 06:23:13;;;;;;;9.10;6.30;;;;;;;;;;108427;1248;59118;-81
2023/07/16 06:25:46;;;;;;;6.50;5.30;;;;;;;;;;108591;1247;22536;-82
2023/07/16 06:28:13;;;;;;;7.00;5.30;;;;;;;;;;108560;1248;25435;-82
2023/07/16 06:30:39;;;;;;;7.00;4.70;;;;;;;;;;108525;1247;22545;-81
2023/07/16 06:33:06;;;;;;;7.40;5.10;;;;;;;;;;108590;1248;22555;-81
2023/07/16 06:35:32;;;;;;;13.50;5.30;;;;;;;;;;108520;1247;24300;-81
2023/07/16 06:37:59;;;;;;;6.10;5.30;;;;;;;;;;108587;1247;23216;-81
2023/07/16 06:40:25;;;;;;;8.40;4.80;;;;;;;;;;108611;1251;22571;-80
2023/07/16 06:42:52;;;;;;;8.80;5.00;;;;;;;;;;108553;1248;24182;-81
2023/07/16 06:45:18;;;;;;;5.60;5.00;;;;;;;;;;108226;1248;25300;-81
2023/07/16 06:47:45;;;;;;;5.90;5.00;;;;;;;;;;108564;1247;22715;-81
2023/07/16 06:50:11;;;;;;;6.50;5.30;;;;;;;;;;108576;1248;22632;-81
2023/07/16 06:52:37;;;;;;;5.30;4.80;;;;;;;;;;108526;1251;25515;-82
2023/07/16 06:55:04;;;;;;;6.10;4.70;;;;;;;;;;108567;1248;22538;-81
2023/07/16 06:57:31;;;;;;;8.10;4.50;;;;;;;;;;108527;1248;26343;-81
2023/07/16 06:59:57;;;;;;;5.00;4.10;;;;;;;;;;108532;1248;25396;-81
2023/07/16 07:02:23;;;;;;;7.20;4.40;;;;;;;;;;108577;1247;24293;-82
2023/07/16 07:04:50;;;;;;;4.90;4.00;;;;;;;;;;108572;1247;22591;-82
2023/07/16 07:07:16;;;;;;;8.00;4.20;;;;;;;;;;108509;1247;22987;-81
2023/07/16 07:09:43;;;;;;;7.20;4.40;;;;;;;;;;108218;1249;147662;-82
2023/07/16 07:12:09;;;;;;;6.90;4.10;;;;;;;;;;108353;1247;22550;-81
2023/07/16 07:14:36;;;;;;;5.40;4.50;;;;;;;;;;108572;1247;22608;-81
2023/07/16 07:17:02;;;;;;;4.30;3.70;;;;;;;;;;108570;1248;22624;-82
2023/07/16 07:19:28;;;;;;;10.80;4.00;;;;;;;;;;108565;1247;22696;-82
2023/07/16 07:21:55;;;;;;;7.30;4.20;;;;;;;;;;108451;1251;22520;-81
2023/07/16 07:24:21;;;;;;;4.90;3.60;;;;;;;;;;108602;1247;22559;-82
2023/07/16 07:26:47;;;;;;;5.40;4.00;;;;;;;;;;108568;1247;22548;-82
2023/07/16 07:29:14;;;;;;;6.50;3.80;;;;;;;;;;108637;1248;22589;-81
2023/07/16 07:31:40;;;;;;;4.50;3.50;;;;;;;;;;108576;1248;22628;-81
2023/07/16 07:34:07;;;;;;;4.40;3.60;;;;;;;;;;108580;1247;25444;-81
2023/07/16 07:36:33;;;;;;;5.00;3.70;;;;;;;;;;108405;1249;25358;-81
2023/07/16 07:39:00;;;;;;;5.50;3.70;;;;;;;;;;108272;1249;25315;-81
2023/07/16 07:41:26;;;;;;;7.00;3.50;;;;;;;;;;108322;1250;22518;-82
2023/07/16 07:43:52;;;;;;;4.60;3.40;;;;;;;;;;108218;1251;24427;-82
2023/07/16 07:46:19;;;;;;;3.30;2.90;;;;;;;;;;108274;1249;22581;-82
2023/07/16 07:48:45;;;;;;;7.60;3.00;;;;;;;;;;108353;1252;22571;-82
2023/07/16 07:51:12;;;;;;;7.70;3.40;;;;;;;;;;108293;1250;22650;-81
2023/07/16 07:53:38;;;;;;;4.50;3.30;;;;;;;;;;108215;1249;22539;-82
2023/07/16 07:56:05;;;;;;;6.50;3.60;;;;;;;;;;108246;1250;59021;-83
2023/07/16 07:58:32;;;;;;;3.70;3.00;;;;;;;;;;108188;1248;61060;-83
2023/07/16 08:01:06;;;;;;;3.70;2.70;;;;;;;;;;107670;1252;61131;-84
2023/07/16 08:03:32;;;;;;;5.90;3.30;;;;;;;;;;108097;1249;58440;-82
2023/07/16 08:05:59;;;;;;;5.30;3.20;;;;;;;;;;108314;1248;25438;-82
2023/07/16 08:08:25;;;;;;;6.80;3.90;;;;;;;;;;108311;1249;25330;-82
2023/07/16 08:10:51;;;;;;;5.30;2.80;;;;;;;;;;108424;1248;22541;-82
2023/07/16 08:13:18;;;;;;;8.50;7.30;;;;;;;;;;108561;1248;22550;-82
2023/07/16 08:15:44;;;;;;;13.60;9.90;;;;;;;;;;108585;1247;22575;-83
2023/07/16 08:18:11;;;;;;;3.70;3.30;;;;;;;;;;108427;1247;22545;-82
2023/07/16 08:20:37;;;;;;;5.60;3.50;;;;;;;;;;108529;1248;22542;-82
2023/07/16 08:23:04;;;;;;;4.70;3.50;;;;;;;;;;108551;1251;22552;-82
2023/07/16 08:25:30;;;;;;;7.30;3.90;;;;;;;;;;108583;1247;22520;-83
2023/07/16 08:27:56;;;;;;;3.50;3.20;;;;;;;;;;108598;1247;22593;-83
2023/07/16 08:30:23;;;;;;;5.00;3.50;;;;;;;;;;108418;1247;59425;-83
2023/07/16 08:32:49;;;;;;;12.70;4.70;;;;;;;;;;108342;1248;61263;-82
2023/07/16 08:35:16;;;;;;;3.90;3.00;;;;;;;;;;108597;1251;57777;-84
2023/07/16 08:37:43;;;;;;;4.40;3.90;;;;;;;;;;108510;1248;59111;-82
2023/07/16 08:40:10;;;;;;;5.20;2.70;;;;;;;;;;108483;1248;61109;-82
2023/07/16 08:42:37;;;;;;;5.80;3.50;;;;;;;;;;108411;1248;61076;-84
2023/07/16 08:45:06;;;;;;;5.40;3.60;;;;;;;;;;108636;1247;24224;-83
2023/07/16 08:47:33;;;;;;;5.40;3.30;;;;;;;;;;108658;1248;22581;-82
2023/07/16 08:50:00;;;;;;;4.20;3.80;;;;;;;;;;108511;1248;57794;-83
2023/07/16 08:52:26;;;;;;;4.70;3.70;;;;;;;;;;107726;1248;61225;-83
2023/07/16 08:54:53;;;;;;;6.80;3.90;;;;;;;;;;107786;1248;61128;-82
2023/07/16 08:57:20;;;;;;;6.70;4.10;;;;;;;;;;108105;1248;61224;-83
2023/07/16 08:59:50;;;;;;;6.30;4.10;;;;;;;;;;108097;1248;59034;-83
2023/07/16 09:02:17;;;;;;;4.70;4.10;;;;;;;;;;107882;1251;61203;-82
2023/07/16 09:04:43;;;;;;;4.90;3.40;;;;;;;;;;108804;1248;22558;-82
2023/07/16 09:07:09;;;;;;;6.00;3.40;;;;;;;;;;108604;1247;36841;-83
2023/07/16 09:09:36;;;;;;;14.80;3.70;;;;;;;;;;107926;1249;61247;-83
2023/07/16 09:12:02;;;;;;;4.50;3.40;;;;;;;;;;107633;1248;61217;-83
2023/07/16 09:14:29;;;;;;;4.00;3.50;;;;;;;;;;108071;1248;59128;-82
2023/07/16 09:16:55;;;;;;;4.50;3.40;;;;;;;;;;108674;1248;22556;-82
2023/07/16 09:19:22;;;;;;;5.80;3.40;;;;;;;;;;108381;1253;22529;-82
2023/07/16 09:21:48;;;;;;;3.60;2.80;;;;;;;;;;108297;1247;61186;-83
2023/07/16 09:24:15;;;;;;;6.20;3.50;;;;;;;;;;107755;1251;61364;-82
2023/07/16 09:26:48;;;;;;;3.30;3.00;;;;;;;;;;107768;1248;61211;-82
2023/07/16 09:29:14;;;;;;;7.90;3.70;;;;;;;;;;107800;1247;61235;-83
2023/07/16 09:31:53;;;;;;;5.50;3.60;;;;;;;;;;107719;1251;61333;-83
2023/07/16 09:34:20;;;;;;;4.20;3.00;;;;;;;;;;107670;1262;61236;-81
2023/07/16 09:36:49;;;;;;;4.00;3.20;;;;;;;;;;107773;1248;61247;-83
2023/07/16 09:39:21;;;;;;;5.10;3.40;;;;;;;;;;107817;1248;61223;-83
2023/07/16 09:41:48;;;;;;;8.40;3.40;;;;;;;;;;107710;1249;61223;-84
2023/07/16 09:44:15;;;;;;;7.90;3.00;;;;;;;;;;107803;1247;61272;-82
2023/07/16 09:46:42;;;;;;;5.10;2.90;;;;;;;;;;107777;1251;61167;-85
2023/07/16 09:49:09;;;;;;;5.30;3.50;;;;;;;;;;107785;1248;61208;-83
2023/07/16 09:51:35;;;;;;;5.10;3.00;;;;;;;;;;107608;1248;61100;-82
2023/07/16 09:54:02;;;;;;;6.00;3.20;;;;;;;;;;107840;1248;61535;-82
2023/07/16 09:56:45;;;;;;;3.30;3.00;;;;;;;;;;107688;1248;61241;-83
2023/07/16 09:59:13;;;;;;;6.10;3.20;;;;;;;;;;107758;1248;61208;-84
2023/07/16 10:01:39;;;;;;;5.50;2.80;;;;;;;;;;107697;1248;61109;-84
2023/07/16 10:04:18;;;;;;;6.80;3.30;;;;;;;;;;107363;1250;61296;-85
2023/07/16 10:06:51;;;;;;;8.50;3.30;;;;;;;;;;107327;1253;61852;-85
2023/07/16 10:09:36;;;;;;;5.50;3.00;;;;;;;;;;107417;1248;61212;-83
2023/07/16 10:12:15;;;;;;;4.30;3.00;;;;;;;;;;107385;1250;61318;-84
2023/07/16 10:14:42;;;;;;;4.30;3.30;;;;;;;;;;107439;1249;61272;-84
2023/07/16 10:17:12;;;;;;;6.50;3.00;;;;;;;;;;107506;1251;61184;-83
2023/07/16 10:19:51;;;;;;;8.80;2.60;;;;;;;;;;107429;1248;61222;-83
2023/07/16 10:22:18;;;;;;;4.50;3.10;;;;;;;;;;107528;1252;61207;-83
2023/07/16 10:24:44;;;;;;;3.60;3.00;;;;;;;;;;107503;1250;61189;-83
2023/07/16 10:27:13;;;;;;;5.60;3.20;;;;;;;;;;107449;1249;61200;-84
2023/07/16 10:29:39;;;;;;;3.40;2.70;;;;;;;;;;107505;1250;61304;-83
2023/07/16 10:32:07;;;;;;;2.60;2.30;;;;;;;;;;107484;1252;63426;-84
2023/07/16 10:34:34;;;;;;;5.20;3.10;;;;;;;;;;107427;1250;61167;-82
2023/07/16 10:37:01;;;;;;;6.30;3.20;;;;;;;;;;107430;1250;61339;-83
2023/07/16 10:39:27;;;;;;;4.30;3.00;;;;;;;;;;107436;1249;61276;-83
2023/07/16 10:41:53;;;;;;;4.50;2.90;;;;;;;;;;107532;1252;61332;-83
2023/07/16 10:44:20;;;;;;;5.60;2.80;;;;;;;;;;107587;1253;61093;-83
2023/07/16 10:46:46;;;;;;;4.20;2.60;;;;;;;;;;107489;1252;61317;-84
2023/07/16 10:49:13;;;;;;;6.20;3.30;;;;;;;;;;107468;1250;61320;-84
2023/07/16 10:51:39;;;;;;;4.70;2.60;;;;;;;;;;107449;1252;61025;-83
2023/07/16 10:54:06;;;;;;;3.60;2.50;;;;;;;;;;107465;1249;61242;-84
2023/07/16 10:56:37;;;;;;;4.40;2.70;;;;;;;;;;107450;1251;61362;-83
2023/07/16 10:59:03;;;;;;;4.20;2.40;;;;;;;;;;107604;1252;61163;-85
2023/07/16 11:01:32;;;;;;;3.40;2.50;;;;;;;;;;107393;1250;61324;-85
2023/07/16 11:04:02;;;;;;;4.00;2.50;;;;;;;;;;107335;1250;61277;-83
2023/07/16 11:06:28;;;;;;;5.80;2.60;;;;;;;;;;107369;1249;61137;-84
2023/07/16 11:08:55;;;;;;;4.30;2.40;;;;;;;;;;107376;1252;61250;-85
2023/07/16 11:11:28;;;;;;;2.60;2.10;;;;;;;;;;107456;1250;61142;-84
2023/07/16 11:13:55;;;;;;;5.90;2.70;;;;;;;;;;107572;1253;61166;-85
2023/07/16 11:16:21;;;;;;;5.10;2.60;;;;;;;;;;107498;1249;61127;-83
2023/07/16 11:18:47;;;;;;;4.20;2.40;;;;;;;;;;107471;1252;60288;-82
2023/07/16 11:21:14;;;;;;;4.90;2.40;;;;;;;;;;107482;1250;61446;-83
2023/07/16 11:23:40;;;;;;;6.70;2.50;;;;;;;;;;107523;1250;61358;-84
2023/07/16 11:26:07;;;;;;;3.00;2.30;;;;;;;;;;107389;1249;62671;-83
2023/07/16 11:28:38;;;;;;;2.70;2.40;;;;;;;;;;107473;1250;61317;-84
2023/07/16 11:31:14;;;;;;;3.70;2.60;;;;;;;;;;107382;1250;63099;-83
2023/07/16 11:33:43;;;;;;;2.70;2.40;;;;;;;;;;107558;1251;61170;-84
2023/07/16 11:36:10;;;;;;;3.70;2.40;;;;;;;;;;107419;1251;61257;-83
2023/07/16 11:38:36;;;;;;;;;;;;;;;;;;107406;1252;61281;-85
2023/07/16 11:41:03;;;;;;;3.20;2.40;;;;;;;;;;107444;1252;61344;-85
2023/07/16 11:43:29;;;;;;;;;;;;;;;;;;107629;1253;61137;-84
2023/07/16 11:45:56;;;;;;;4.60;2.40;;;;;;;;;;107471;1250;61141;-84
2023/07/16 11:48:22;;;;;;;15.30;10.10;;;;;;;;;;107374;1249;61213;-85
2023/07/16 11:50:48;;;;;;;7.80;4.70;;;;;;;;;;107442;1252;61278;-84
2023/07/16 11:53:15;;;;;;;3.30;2.40;;;;;;;;;;107485;1249;61337;-83
2023/07/16 11:55:41;;;;;;;4.10;2.50;;;;;;;;;;107618;1250;61231;-83
2023/07/16 11:58:08;;;;;;;5.70;2.70;;;;;;;;;;107663;1248;61415;-85
2023/07/16 12:00:34;;;;;;;3.90;2.90;;;;;;;;;;107581;1248;61389;-83
2023/07/16 12:03:00;;;;;;;4.40;2.80;;;;;;;;;;107489;1250;61324;-83
2023/07/16 12:05:28;;;;;;;3.90;2.40;;;;;;;;;;107339;1249;62080;-85
2023/07/16 12:07:54;;;;;;;2.50;2.30;;;;;;;;;;107476;1251;61206;-84
2023/07/16 12:10:21;;;;;;;4.20;2.60;;;;;;;;;;107417;1249;61255;-84
2023/07/16 12:12:47;;;;;;;3.00;2.70;;;;;;;;;;107448;1252;61239;-84
2023/07/16 12:15:13;;;;;;;4.10;3.10;;;;;;;;;;107407;1252;61375;-84
2023/07/16 12:17:40;;;;;;;5.20;2.20;;;;;;;;;;107337;1250;60340;-84
2023/07/16 12:20:06;;;;;;;4.10;2.30;;;;;;;;;;107455;1250;61248;-84
2023/07/16 12:22:33;;;;;;;;;;;;;;;;;;107397;1250;61360;-85
2023/07/16 12:24:59;;;;;;;3.60;2.40;;;;;;;;;;107388;1250;61119;-83
2023/07/16 12:27:26;;;;;;;3.90;2.90;;;;;;;;;;107390;1250;61231;-84
2023/07/16 12:29:52;;;;;;;4.10;2.60;;;;;;;;;;107409;1250;61222;-83
2023/07/16 12:32:20;;;;;;;5.00;2.80;;;;;;;;;;107515;1251;59945;-83
2023/07/16 12:34:46;;;;;;;4.90;3.00;;;;;;;;;;107435;1249;61233;-83
2023/07/16 12:37:13;;;;;;;3.60;2.90;;;;;;;;;;107438;1248;61224;-84
2023/07/16 12:39:39;;;;;;;3.10;2.60;;;;;;;;;;107420;1249;61186;-83
2023/07/16 12:42:06;;;;;;;6.10;2.60;;;;;;;;;;107627;1248;61285;-84
2023/07/16 12:44:32;;;;;;;;;;;;;;;;;;107423;1252;61288;-84
2023/07/16 12:46:59;;;;;;;3.60;2.00;;;;;;;;;;107428;1252;61314;-84
2023/07/16 12:49:25;;;;;;;4.70;3.00;;;;;;;;;;107487;1252;61349;-84
2023/07/16 12:51:51;;;;;;;2.70;2.50;;;;;;;;;;107427;1252;61203;-84
2023/07/16 12:54:18;;;;;;;5.60;2.40;;;;;;;;;;107360;1250;61314;-83
2023/07/16 12:56:45;;;;;;;4.10;2.90;;;;;;;;;;107453;1250;61264;-84
2023/07/16 12:59:11;;;;;;;4.70;2.70;;;;;;;;;;107558;1248;61224;-84
2023/07/16 13:01:37;;;;;;;6.80;2.50;;;;;;;;;;107487;1252;61180;-84
2023/07/16 13:04:04;;;;;;;3.60;2.80;;;;;;;;;;107450;1248;61092;-84
2023/07/16 13:06:30;;;;;;;3.10;2.70;;;;;;;;;;107435;1248;61333;-84
2023/07/16 13:08:56;;;;;;;4.70;2.80;;;;;;;;;;107365;1252;61258;-85
2023/07/16 13:11:23;;;;;;;2.80;2.60;;;;;;;;;;107378;1249;61019;-84
2023/07/16 13:13:50;;;;;;;4.80;3.00;;;;;;;;;;107392;1250;61366;-85
2023/07/16 13:16:16;;;;;;;3.40;2.80;;;;;;;;;;107391;1252;61292;-84
2023/07/16 13:18:42;;;;;;;3.60;2.60;;;;;;;;;;107403;1251;61323;-84
2023/07/16 13:21:09;;;;;;;4.20;2.30;;;;;;;;;;107343;1250;61375;-85
2023/07/16 13:23:36;;;;;;;3.30;2.80;;;;;;;;;;107464;1250;61676;-84
2023/07/16 13:26:02;;;;;;;3.30;3.00;;;;;;;;;;107361;1250;61244;-84
2023/07/16 13:28:29;;;;;;;6.30;2.90;;;;;;;;;;107490;1250;59141;-85
2023/07/16 13:30:55;;;;;;;5.70;3.40;;;;;;;;;;107467;1250;61221;-85
2023/07/16 13:33:23;;;;;;;;;;;;;;;;;;107381;1250;61617;-84
2023/07/16 13:35:49;;;;;;;4.30;2.90;;;;;;;;;;107365;1252;61158;-84
2023/07/16 13:38:16;;;;;;;6.00;2.80;;;;;;;;;;107377;1250;61101;-83
2023/07/16 13:40:42;;;;;;;3.40;2.80;;;;;;;;;;107402;1250;61218;-85
2023/07/16 13:43:09;;;;;;;6.50;3.40;;;;;;;;;;107382;1250;61312;-83
2023/07/16 13:45:36;;;;;;;4.10;3.00;;;;;;;;;;107522;1250;61158;-84
2023/07/16 13:48:02;;;;;;;3.50;2.70;;;;;;;;;;107411;1250;61260;-84
2023/07/16 13:50:29;;;;;;;6.40;3.20;;;;;;;;;;107380;1250;61323;-83
2023/07/16 13:52:55;;;;;;;3.70;3.30;;;;;;;;;;107437;1249;61223;-83
2023/07/16 13:55:21;;;;;;;6.80;3.50;;;;;;;;;;107566;1248;61237;-84
2023/07/16 13:57:48;;;;;;;5.80;3.90;;;;;;;;;;107359;1250;61148;-83
2023/07/16 14:00:15;;;;;;;6.20;3.70;;;;;;;;;;107560;1252;61313;-83
2023/07/16 14:02:42;;;;;;;8.50;3.90;;;;;;;;;;107419;1250;59418;-84
2023/07/16 14:05:09;;;;;;;3.60;3.30;;;;;;;;;;107331;1252;61101;-84
2023/07/16 14:07:36;;;;;;;5.40;3.80;;;;;;;;;;107380;1250;61140;-83
2023/07/16 14:10:02;;;;;;;6.10;4.10;;;;;;;;;;107632;1250;59457;-84
2023/07/16 14:12:28;;;;;;;6.50;3.90;;;;;;;;;;107368;1252;61294;-84
2023/07/16 14:14:55;;;;;;;8.20;3.40;;;;;;;;;;107411;1249;59529;-84
2023/07/16 14:17:21;;;;;;;4.60;3.70;;;;;;;;;;107417;1254;61253;-83
2023/07/16 14:19:48;;;;;;;6.90;4.70;;;;;;;;;;107421;1252;61109;-84
2023/07/16 14:22:15;;;;;;;5.20;4.10;;;;;;;;;;107448;1252;61144;-84
2023/07/16 14:24:42;;;;;;;5.60;4.40;;;;;;;;;;107409;1252;61180;-83
2023/07/16 14:27:08;;;;;;;4.80;4.00;;;;;;;;;;107406;1252;61222;-84
2023/07/16 14:29:35;;;;;;;4.40;4.00;;;;;;;;;;107422;1250;61353;-83